Time;durP1;ratioP1;P1;durP2;ratioP2;P2;SDS_P1;SDS_P2;PMS_P1;PMS_P2;Temp;Humidity;BMP_temperature;BMP_pressure;BME280_temperature;BME280_humidity;BME280_pressure;Samples;Min_cycle;Max_cycle;Signal;HPM_P1;HPM_P2
2021/12/28 00:01:07;;;;;;;22.33;19.40;;;5.90;99.90;;;6.52;100.00;96550.75;5204746;28;20198;-64
2021/12/28 00:03:44;;;;;;;21.03;18.87;;;5.90;99.90;;;6.45;100.00;96548.72;5204795;28;20252;-64
2021/12/28 00:06:17;;;;;;;16.40;14.80;;;5.80;99.90;;;6.44;100.00;96546.94;5204155;28;20218;-64
2021/12/28 00:08:50;;;;;;;23.97;18.83;;;5.80;99.90;;;6.41;100.00;96546.78;5205318;28;20194;-64
2021/12/28 00:11:24;;;;;;;22.60;17.47;;;5.70;99.90;;;6.34;100.00;96529.53;5203060;28;20197;-64
2021/12/28 00:14:01;;;;;;;12.97;11.67;;;5.70;99.90;;;6.35;100.00;96536.31;5204424;28;20202;-64
2021/12/28 00:17:58;;;;;;;8.13;7.30;;;5.70;99.90;;;6.35;100.00;96528.72;5203543;28;20234;-64
2021/12/28 00:19:31;;;;;;;7.43;6.50;;;5.70;99.90;;;6.26;100.00;96535.06;5203394;28;20202;-64
2021/12/28 00:22:04;;;;;;;8.60;7.27;;;5.60;99.90;;;6.23;100.00;96528.97;5204228;28;20201;-64
2021/12/28 00:24:37;;;;;;;6.80;6.20;;;5.60;99.90;;;6.18;100.00;96528.75;5202486;28;20678;-64
2021/12/28 00:27:10;;;;;;;7.23;6.73;;;5.50;99.90;;;6.16;100.00;96525.25;5204350;28;20218;-64
2021/12/28 00:29:43;;;;;;;6.33;5.93;;;5.50;99.90;;;6.12;100.00;96536.00;5204294;28;20711;-64
2021/12/28 00:32:16;;;;;;;6.87;6.27;;;5.50;99.90;;;6.06;100.00;96535.69;5203334;28;20212;-64
2021/12/28 00:34:51;;;;;;;14.07;12.67;;;5.40;99.90;;;6.08;100.00;96541.72;5204224;28;20194;-64
2021/12/28 00:37:24;;;;;;;15.37;11.90;;;5.40;99.90;;;6.01;100.00;96535.47;5201202;28;20221;-64
2021/12/28 00:39:57;;;;;;;8.13;7.43;;;5.40;99.90;;;6.03;100.00;96533.84;5199451;28;20208;-64
2021/12/28 00:42:31;;;;;;;6.73;5.43;;;5.30;99.90;;;5.82;100.00;96538.63;5203316;28;20202;-64
2021/12/28 00:45:05;;;;;;;8.17;7.47;;;5.20;99.90;;;5.80;100.00;96550.34;5204690;28;20190;-64
2021/12/28 00:47:38;;;;;;;5.40;5.00;;;5.10;99.90;;;5.80;100.00;96564.69;5203209;28;20213;-64
2021/12/28 00:50:16;;;;;;;6.80;5.90;;;5.10;99.90;;;5.74;100.00;96547.50;5203759;28;20202;-64
2021/12/28 00:52:50;;;;;;;5.23;4.83;;;5.10;99.90;;;5.82;100.00;96527.63;5204053;28;20204;-64
2021/12/28 00:55:24;;;;;;;6.30;5.73;;;5.00;99.90;;;6.03;100.00;96538.94;5202379;28;20202;-64
2021/12/28 00:57:57;;;;;;;6.43;5.83;;;5.20;99.90;;;5.85;100.00;96533.72;5203367;28;20222;-64
2021/12/28 01:00:34;;;;;;;6.37;5.67;;;5.20;99.90;;;5.80;100.00;96544.41;5202428;28;22537;-64
2021/12/28 01:03:09;;;;;;;5.50;5.00;;;5.10;99.90;;;5.73;100.00;96528.00;5203455;28;20194;-64
2021/12/28 01:05:45;;;;;;;7.77;7.10;;;5.10;99.90;;;5.68;100.00;96534.47;5201817;28;20205;-64
2021/12/28 01:08:18;;;;;;;7.60;7.00;;;5.00;99.90;;;5.74;100.00;96539.00;5202547;28;20498;-64
2021/12/28 01:10:54;;;;;;;8.07;6.20;;;5.00;99.90;;;5.78;100.00;96531.66;5200918;28;20202;-64
2021/12/28 01:13:27;;;;;;;6.80;6.13;;;5.10;99.90;;;5.74;100.00;96534.81;5200608;28;20208;-64
2021/12/28 01:16:01;;;;;;;7.00;6.30;;;5.10;99.90;;;5.61;100.00;96533.28;5201380;28;20565;-64
2021/12/28 01:18:34;;;;;;;5.60;5.10;;;5.10;99.90;;;5.52;100.00;96531.91;5201319;28;20222;-64
2021/12/28 01:21:10;;;;;;;5.63;5.13;;;4.90;99.90;;;5.51;100.00;96537.75;5203644;28;20205;-64
2021/12/28 01:23:43;;;;;;;5.87;5.27;;;4.90;99.90;;;5.46;100.00;96534.09;5202323;28;20197;-65
2021/12/28 01:26:17;;;;;;;7.63;5.80;;;4.90;99.90;;;5.45;100.00;96539.97;5202295;28;20236;-64
2021/12/28 01:28:50;;;;;;;5.97;5.37;;;4.80;99.90;;;5.42;100.00;96528.88;5198706;28;20197;-64
2021/12/28 01:31:23;;;;;;;5.90;5.40;;;4.90;99.90;;;5.41;100.00;96532.19;5200938;28;20234;-65
2021/12/28 01:33:59;;;;;;;5.83;5.33;;;4.80;99.90;;;5.35;100.00;96515.78;5201270;28;20202;-64
2021/12/28 01:36:34;;;;;;;6.07;5.50;;;4.70;99.90;;;5.29;100.00;96516.31;5200105;28;20220;-65
2021/12/28 01:39:08;;;;;;;5.27;4.87;;;4.60;99.90;;;5.28;100.00;96513.69;5202359;28;20650;-65
2021/12/28 01:41:41;;;;;;;26.50;5.77;;;4.60;99.90;;;5.23;100.00;96510.03;5200992;28;20206;-64
2021/12/28 01:44:15;;;;;;;21.50;5.40;;;4.50;99.90;;;5.21;100.00;96504.91;5200819;28;20204;-65
2021/12/28 01:46:48;;;;;;;4.13;3.73;;;4.40;99.90;;;5.08;100.00;96494.88;5202821;28;20229;-64
2021/12/28 01:49:21;;;;;;;3.43;3.23;;;4.30;99.90;;;5.04;100.00;96490.44;5202713;28;20204;-65
2021/12/28 01:51:56;;;;;;;4.60;4.20;;;4.40;99.90;;;4.99;100.00;96490.16;5201994;28;20666;-64
2021/12/28 01:54:29;;;;;;;4.57;4.17;;;4.30;99.90;;;4.93;100.00;96480.56;5201381;28;20201;-64
2021/12/28 01:57:03;;;;;;;5.40;5.00;;;4.30;99.90;;;4.90;100.00;96493.06;5202603;28;20222;-64
2021/12/28 01:59:36;;;;;;;5.43;4.37;;;4.20;99.90;;;4.95;100.00;96490.75;5194759;28;20228;-64
2021/12/28 02:02:09;;;;;;;6.03;5.07;;;4.30;99.90;;;4.92;100.00;96475.41;5200921;28;20201;-64
2021/12/28 02:04:42;;;;;;;7.27;5.00;;;4.30;99.90;;;4.93;100.00;96480.56;5200917;28;20349;-65
2021/12/28 02:07:17;;;;;;;6.87;4.77;;;4.30;99.90;;;4.98;100.00;96470.72;5202286;28;20233;-64
2021/12/28 02:09:50;;;;;;;5.30;4.73;;;4.30;99.90;;;5.02;100.00;96469.22;5201919;28;20197;-65
2021/12/28 02:12:23;;;;;;;7.53;4.60;;;4.40;99.90;;;5.04;100.00;96470.19;5197149;28;20202;-64
2021/12/28 02:14:57;;;;;;;7.33;4.60;;;4.40;99.90;;;5.07;100.00;96476.28;5200354;28;20221;-64
2021/12/28 02:17:30;;;;;;;4.23;3.73;;;4.40;99.90;;;5.06;100.00;96466.03;5200831;28;20221;-64
2021/12/28 02:20:08;;;;;;;6.47;3.70;;;4.40;99.90;;;5.05;100.00;96456.72;5201850;28;20201;-64
2021/12/28 02:22:41;;;;;;;3.87;3.07;;;4.30;99.90;;;4.84;100.00;96456.41;5200624;28;20204;-65
2021/12/28 02:25:17;;;;;;;3.77;3.47;;;4.10;99.90;;;4.79;100.00;96453.59;5201188;28;20211;-64
2021/12/28 02:27:50;;;;;;;3.57;3.27;;;4.10;99.90;;;4.67;100.00;96450.41;5199622;28;20233;-64
2021/12/28 02:30:23;;;;;;;4.93;3.70;;;4.00;99.90;;;4.56;100.00;96438.78;5199660;28;20206;-65
2021/12/28 02:32:56;;;;;;;4.83;3.57;;;3.90;99.90;;;4.60;100.00;96443.22;5202239;28;20194;-64
2021/12/28 02:35:31;;;;;;;5.40;4.37;;;3.90;99.90;;;4.59;100.00;96433.91;5200233;28;20202;-65
2021/12/28 02:38:08;;;;;;;5.80;4.13;;;3.90;99.90;;;4.56;100.00;96424.47;5200588;28;20225;-64
2021/12/28 02:40:44;;;;;;;3.83;3.33;;;3.90;99.90;;;4.56;100.00;96421.09;5199349;28;20297;-65
2021/12/28 02:43:19;;;;;;;3.87;3.40;;;3.90;99.90;;;4.60;100.00;96425.50;5199925;28;20194;-64
2021/12/28 02:45:57;;;;;;;4.83;3.30;;;3.80;99.90;;;4.55;100.00;96416.78;5201129;28;20276;-65
2021/12/28 02:48:31;;;;;;;3.47;3.20;;;3.70;99.90;;;4.53;100.00;96409.13;5199896;28;20198;-65
2021/12/28 02:51:09;;;;;;;6.00;4.13;;;3.70;99.90;;;4.32;100.00;96416.38;5201314;28;20208;-64
2021/12/28 02:53:44;;;;;;;3.90;3.50;;;3.70;99.90;;;4.32;100.00;96413.84;5200479;28;20205;-65
2021/12/28 02:56:20;;;;;;;4.07;3.77;;;3.70;99.90;;;4.37;100.00;96422.53;5199397;28;20237;-65
2021/12/28 02:58:54;;;;;;;6.50;4.30;;;3.80;99.90;;;4.36;100.00;96417.41;5200054;28;20236;-64
2021/12/28 03:01:30;;;;;;;4.07;3.57;;;3.80;99.90;;;4.39;100.00;96415.94;5202138;28;20198;-66
2021/12/28 03:04:07;;;;;;;4.80;3.87;;;3.80;99.90;;;4.42;100.00;96411.03;5202850;28;20261;-65
2021/12/28 03:06:42;;;;;;;8.97;4.10;;;3.80;99.90;;;4.26;100.00;96405.88;5200607;28;20301;-66
2021/12/28 03:09:15;;;;;;;9.23;4.97;;;3.70;99.90;;;4.32;100.00;96406.25;5193784;28;20661;-65
2021/12/28 03:11:49;;;;;;;7.27;5.23;;;3.70;99.90;;;4.36;100.00;96397.19;5195728;28;20202;-65
2021/12/28 03:14:22;;;;;;;7.33;4.57;;;3.80;99.90;;;4.46;100.00;96396.91;5198676;28;20673;-65
2021/12/28 03:16:55;;;;;;;5.43;4.53;;;3.80;99.90;;;4.37;100.00;96394.72;5199073;28;20259;-66
2021/12/28 03:19:31;;;;;;;4.10;3.63;;;3.80;99.90;;;4.37;100.00;96387.13;5197633;28;20210;-65
2021/12/28 03:22:05;;;;;;;7.70;3.60;;;3.80;99.90;;;4.33;100.00;96390.28;5196787;28;20205;-65
2021/12/28 03:24:38;;;;;;;8.30;3.63;;;3.70;99.90;;;4.32;100.00;96383.50;5196641;28;20228;-65
2021/12/28 03:27:11;;;;;;;5.57;3.93;;;3.60;99.90;;;4.30;100.00;96374.94;5194045;28;20226;-65
2021/12/28 03:29:45;;;;;;;7.63;4.10;;;3.60;99.90;;;4.28;100.00;96377.38;5198018;28;20561;-65
2021/12/28 03:32:18;;;;;;;4.33;3.80;;;3.70;99.90;;;4.28;100.00;96361.34;5197922;28;20198;-65
2021/12/28 03:34:51;;;;;;;5.93;3.70;;;3.60;99.90;;;4.29;100.00;96363.06;5199873;28;20198;-66
2021/12/28 03:37:25;;;;;;;4.80;3.53;;;3.60;99.90;;;4.28;100.00;96362.19;5195424;28;20228;-66
2021/12/28 03:39:59;;;;;;;6.40;3.57;;;3.70;99.90;;;4.44;100.00;96353.84;5198328;28;20221;-65
2021/12/28 03:42:32;;;;;;;5.50;3.50;;;3.80;99.90;;;4.47;100.00;96361.59;5196039;28;20194;-66
2021/12/28 03:45:07;;;;;;;5.90;3.27;;;3.90;99.90;;;4.49;100.00;96352.44;5197245;28;20218;-66
2021/12/28 03:47:41;;;;;;;7.40;3.67;;;3.90;99.90;;;4.57;100.00;96355.38;5194466;28;20241;-66
2021/12/28 03:50:14;;;;;;;11.13;4.43;;;4.00;99.90;;;4.62;100.00;96353.97;5194915;28;20284;-65
2021/12/28 03:52:50;;;;;;;6.87;4.33;;;4.10;99.90;;;4.69;100.00;96352.63;5198701;28;20297;-66
2021/12/28 03:55:24;;;;;;;9.43;3.90;;;4.10;99.90;;;4.78;100.00;96350.63;5196241;28;20212;-66
2021/12/28 03:58:00;;;;;;;10.27;4.00;;;4.20;99.90;;;4.83;100.00;96344.13;5203198;28;20225;-66
2021/12/28 04:00:39;;;;;;;10.73;3.70;;;4.30;99.90;;;4.93;100.00;96351.47;5200526;28;20320;-66
2021/12/28 04:03:13;;;;;;;10.93;3.93;;;4.40;99.90;;;5.03;100.00;96349.41;5200877;28;20244;-66
2021/12/28 04:05:47;;;;;;;11.47;3.70;;;4.50;99.90;;;5.08;100.00;96335.34;5200212;28;20301;-66
2021/12/28 04:08:23;;;;;;;11.30;4.07;;;4.50;99.90;;;5.19;100.00;96329.19;5201095;28;20191;-65
2021/12/28 04:11:12;;;;;;;9.47;4.50;;;4.60;99.90;;;5.33;100.00;96322.31;5202242;28;20207;-66
2021/12/28 04:13:47;;;;;;;13.53;4.40;;;4.80;99.90;;;5.33;100.00;96323.19;5204479;28;20208;-66
2021/12/28 04:16:21;;;;;;;8.93;4.87;;;4.80;99.90;;;5.28;100.00;96323.72;5200132;28;20221;-66
2021/12/28 04:18:55;;;;;;;6.87;4.30;;;4.70;99.90;;;5.20;100.00;96328.38;5201038;28;20230;-66
2021/12/28 04:21:28;;;;;;;6.10;4.23;;;4.40;99.90;;;5.09;100.00;96327.81;5200552;28;20202;-66
2021/12/28 04:24:04;;;;;;;6.07;4.13;;;4.30;99.90;;;4.97;100.00;96319.56;5201599;28;20210;-66
2021/12/28 04:26:37;;;;;;;6.53;4.20;;;4.20;99.90;;;4.89;100.00;96316.66;5197936;28;20225;-66
2021/12/28 04:29:10;;;;;;;5.37;3.90;;;4.10;99.90;;;4.81;100.00;96324.59;5201213;28;20212;-65
2021/12/28 04:31:43;;;;;;;6.23;3.30;;;4.10;99.90;;;4.82;100.00;96329.75;5200579;28;20204;-66
2021/12/28 04:34:17;;;;;;;6.80;3.97;;;4.10;99.90;;;4.87;100.00;96325.81;5200666;28;20201;-65
2021/12/28 04:36:50;;;;;;;8.97;4.00;;;4.20;99.90;;;4.88;100.00;96327.53;5200100;28;20222;-66
2021/12/28 04:39:24;;;;;;;6.30;4.20;;;4.30;99.90;;;4.95;100.00;96324.56;5198998;28;20233;-66
2021/12/28 04:41:58;;;;;;;4.60;4.20;;;4.30;99.90;;;4.95;100.00;96332.16;5198820;28;20206;-66
2021/12/28 04:44:31;;;;;;;5.43;4.33;;;4.20;99.90;;;4.96;100.00;96326.31;5198116;28;20206;-66
2021/12/28 04:47:05;;;;;;;5.90;4.47;;;4.20;99.90;;;4.95;100.00;96318.59;5200679;28;20213;-66
2021/12/28 04:49:38;;;;;;;5.87;4.10;;;4.20;99.90;;;4.95;100.00;96318.59;5195594;28;20217;-66
2021/12/28 04:52:11;;;;;;;5.17;4.67;;;4.20;99.90;;;4.98;100.00;96318.81;5199409;28;20205;-66
2021/12/28 04:54:45;;;;;;;6.33;4.53;;;4.30;99.90;;;5.05;100.00;96325.06;5198932;28;20194;-65
2021/12/28 04:57:18;;;;;;;5.83;4.00;;;4.30;99.90;;;5.03;100.00;96317.34;5200790;28;20225;-65
2021/12/28 04:59:52;;;;;;;4.63;4.17;;;4.30;99.90;;;5.00;100.00;96318.88;5200364;28;20221;-65
2021/12/28 05:02:25;;;;;;;7.60;3.73;;;4.30;99.90;;;5.03;100.00;96316.50;5202023;28;20196;-65
2021/12/28 05:04:58;;;;;;;13.80;5.23;;;4.40;99.90;;;5.06;100.00;96314.13;5198617;28;20293;-65
2021/12/28 05:07:31;;;;;;;6.90;4.90;;;4.50;99.90;;;5.18;100.00;96310.59;5200428;28;20217;-65
2021/12/28 05:10:08;;;;;;;11.30;5.47;;;4.60;99.90;;;5.34;100.00;96314.78;5200661;28;20200;-64
2021/12/28 05:12:43;;;;;;;7.10;4.80;;;4.80;99.90;;;5.41;100.00;96306.72;5199865;28;20194;-64
2021/12/28 05:15:16;;;;;;;6.50;3.70;;;4.80;99.90;;;5.43;100.00;96305.09;5197051;28;20193;-64
2021/12/28 05:17:50;;;;;;;7.57;4.40;;;4.80;99.90;;;5.36;100.00;96298.00;5199705;28;20226;-65
2021/12/28 05:20:24;;;;;;;7.77;3.77;;;4.80;99.90;;;5.41;100.00;96300.78;5203932;28;20328;-65
2021/12/28 05:22:58;;;;;;;8.97;4.30;;;4.70;99.90;;;5.36;100.00;96287.88;5202273;28;20671;-64
2021/12/28 05:25:33;;;;;;;7.23;3.93;;;4.80;99.90;;;5.32;100.00;96280.03;5201096;28;20220;-66
2021/12/28 05:28:07;;;;;;;8.83;5.60;;;4.70;99.90;;;5.38;100.00;96276.16;5205338;28;20224;-65
2021/12/28 05:30:40;;;;;;;8.77;5.73;;;4.90;99.90;;;5.52;100.00;96274.34;5201912;28;20216;-66
2021/12/28 05:33:13;;;;;;;11.50;5.43;;;5.10;99.90;;;5.66;100.00;96267.41;5201554;28;20210;-65
2021/12/28 05:35:46;;;;;;;9.47;6.00;;;5.20;99.90;;;5.62;100.00;96279.06;5201816;28;20209;-65
2021/12/28 05:38:19;;;;;;;8.33;6.27;;;5.10;99.90;;;5.59;100.00;96275.50;5199799;28;20647;-65
2021/12/28 05:40:54;;;;;;;10.30;5.87;;;5.00;99.90;;;5.62;100.00;96275.66;5199878;28;20219;-64
2021/12/28 05:43:27;;;;;;;9.57;5.63;;;5.10;99.90;;;5.63;100.00;96264.72;5201049;28;20704;-64
2021/12/28 05:46:00;;;;;;;11.23;6.90;;;5.10;99.90;;;5.61;100.00;96268.84;5200462;28;20773;-65
2021/12/28 05:48:34;;;;;;;10.60;6.73;;;5.20;99.90;;;5.70;100.00;96269.31;5202898;28;20202;-64
2021/12/28 05:51:07;;;;;;;11.80;7.13;;;5.20;99.90;;;5.83;100.00;96261.50;5197347;28;20200;-65
2021/12/28 05:53:40;;;;;;;9.33;6.37;;;5.40;99.90;;;6.01;100.00;96256.50;5204989;28;20205;-65
2021/12/28 05:56:15;;;;;;;11.43;7.30;;;5.50;99.90;;;6.09;100.00;96257.75;5201095;28;20244;-65
2021/12/28 05:58:48;;;;;;;12.10;8.30;;;5.60;99.90;;;6.16;100.00;96256.34;5201971;28;20566;-65
2021/12/28 06:01:21;;;;;;;13.50;7.20;;;5.60;99.90;;;6.22;100.00;96243.97;5195947;28;20206;-64
2021/12/28 06:03:54;;;;;;;7.07;5.47;;;5.70;99.90;;;6.22;100.00;96245.63;5201482;28;20273;-64
2021/12/28 06:06:27;;;;;;;6.57;5.53;;;5.60;99.90;;;6.21;100.00;96254.91;5200359;28;20233;-65
2021/12/28 06:09:06;;;;;;;7.93;5.73;;;5.60;99.90;;;6.04;100.00;96255.78;5203276;28;20225;-64
2021/12/28 06:11:40;;;;;;;7.73;5.70;;;5.40;99.90;;;5.99;100.00;96249.63;5197446;28;20204;-64
2021/12/28 06:14:14;;;;;;;7.73;5.50;;;5.20;99.90;;;5.94;100.00;96254.44;5199910;28;20233;-64
2021/12/28 06:16:47;;;;;;;9.63;5.00;;;5.30;99.90;;;5.95;100.00;96247.72;5198930;28;20219;-64
2021/12/28 06:19:20;;;;;;;8.80;5.00;;;5.40;99.90;;;5.96;100.00;96250.34;5195145;28;20222;-64
2021/12/28 06:21:54;;;;;;;7.67;5.30;;;5.40;99.90;;;5.86;100.00;96251.50;5200014;28;20210;-64
2021/12/28 06:24:27;;;;;;;8.47;5.53;;;5.40;99.90;;;5.83;100.00;96246.28;5201437;28;20206;-64
2021/12/28 06:27:01;;;;;;;7.03;5.20;;;5.30;99.90;;;5.84;100.00;96248.03;5192068;28;20228;-64
2021/12/28 06:29:35;;;;;;;7.67;4.90;;;5.30;99.90;;;5.84;100.00;96242.97;5199105;28;20220;-64
2021/12/28 06:32:09;;;;;;;6.73;5.47;;;5.40;99.90;;;5.87;100.00;96243.13;5201636;28;20196;-64
2021/12/28 06:34:42;;;;;;;7.03;5.43;;;5.40;99.90;;;5.92;100.00;96234.84;5202522;28;20338;-65
2021/12/28 06:37:15;;;;;;;6.43;5.30;;;5.40;99.90;;;5.96;100.00;96239.31;5201684;28;20214;-64
2021/12/28 06:39:48;;;;;;;7.70;5.37;;;5.50;99.90;;;6.04;100.00;96241.44;5204772;28;20216;-64
2021/12/28 06:42:22;;;;;;;8.97;6.83;;;5.50;99.90;;;6.12;100.00;96233.31;5203445;28;20204;-64
2021/12/28 06:44:56;;;;;;;9.00;6.30;;;5.60;99.90;;;6.20;100.00;96226.94;5202105;28;20495;-64
2021/12/28 06:47:29;;;;;;;9.47;5.47;;;5.70;99.90;;;6.28;100.00;96231.56;5202067;28;20623;-64
2021/12/28 06:50:02;;;;;;;8.60;4.80;;;5.70;99.90;;;6.41;100.00;96216.91;5201512;28;20458;-64
2021/12/28 06:52:36;;;;;;;5.83;4.13;;;5.90;99.90;;;6.48;100.00;96218.94;5200872;28;20203;-64
2021/12/28 06:55:11;;;;;;;7.83;5.73;;;6.00;99.90;;;6.52;100.00;96221.69;5200251;28;20307;-64
2021/12/28 06:57:45;;;;;;;6.70;4.87;;;6.10;99.90;;;6.63;100.00;96224.69;5199198;28;20235;-64
2021/12/28 07:00:20;;;;;;;8.23;5.43;;;6.10;99.90;;;6.68;100.00;96220.72;5202113;28;20221;-64
2021/12/28 07:02:53;;;;;;;12.67;8.07;;;6.10;99.90;;;6.76;100.00;96221.06;5202270;28;20212;-64
2021/12/28 07:05:27;;;;;;;5.47;4.47;;;6.10;99.90;;;6.87;100.00;96213.94;5200278;28;20209;-64
2021/12/28 07:08:01;;;;;;;5.53;4.23;;;6.20;99.90;;;6.96;100.00;96199.09;5199013;28;20221;-64
2021/12/28 07:10:34;;;;;;;4.43;4.10;;;6.40;99.90;;;7.09;100.00;96196.25;5198703;28;20209;-64
2021/12/28 07:13:09;;;;;;;4.37;4.07;;;6.50;99.90;;;7.18;100.00;96196.69;5196778;28;20206;-64
2021/12/28 07:15:42;;;;;;;5.10;3.63;;;6.60;99.90;;;7.22;100.00;96203.63;5201847;28;20584;-64
2021/12/28 07:18:15;;;;;;;3.73;3.47;;;6.60;99.90;;;7.26;100.00;96204.63;5203373;28;20225;-64
2021/12/28 07:20:49;;;;;;;5.23;3.60;;;6.70;99.90;;;7.31;100.00;96199.75;5197572;28;20217;-65
2021/12/28 07:23:22;;;;;;;3.27;3.07;;;6.70;99.90;;;7.32;100.00;96202.31;5201310;28;20198;-65
2021/12/28 07:25:55;;;;;;;3.97;3.67;;;6.80;99.90;;;7.31;100.00;96194.66;5197101;28;20646;-65
2021/12/28 07:28:30;;;;;;;4.40;4.00;;;6.70;99.90;;;7.45;100.00;96185.94;5198571;28;20676;-65
2021/12/28 07:31:03;;;;;;;3.57;3.27;;;6.80;99.90;;;7.43;100.00;96192.63;5205502;28;20269;-65
2021/12/28 07:33:36;;;;;;;3.60;3.33;;;6.80;99.90;;;7.48;100.00;96200.44;5207611;28;20264;-65
2021/12/28 07:36:09;;;;;;;3.13;2.93;;;6.90;99.90;;;7.48;100.00;96201.31;5205694;28;20224;-64
2021/12/28 07:38:42;;;;;;;3.10;2.87;;;6.90;99.90;;;7.56;100.00;96206.72;5202198;28;20202;-64
2021/12/28 07:41:16;;;;;;;3.33;3.03;;;6.90;99.90;;;7.64;100.00;96198.63;5207102;28;20236;-66
2021/12/28 07:43:50;;;;;;;3.30;3.10;;;7.00;99.90;;;7.72;100.00;96190.41;5205485;28;20418;-64
2021/12/28 07:46:23;;;;;;;2.93;2.80;;;7.10;99.90;;;7.84;100.00;96203.63;5195563;28;20217;-64
2021/12/28 07:48:57;;;;;;;3.10;2.90;;;7.10;99.90;;;7.99;100.00;96203.41;5203603;28;20205;-63
2021/12/28 07:51:30;;;;;;;2.40;2.20;;;7.20;99.90;;;7.92;100.00;96204.81;5205338;28;20208;-65
2021/12/28 07:54:03;;;;;;;2.90;2.70;;;7.20;99.90;;;7.99;100.00;96206.81;5202148;28;20213;-65
2021/12/28 07:56:37;;;;;;;2.53;2.43;;;7.30;99.90;;;8.01;100.00;96207.75;5203705;28;20240;-65
2021/12/28 07:59:12;;;;;;;3.23;2.93;;;7.30;99.90;;;8.18;100.00;96192.25;5202970;28;20227;-65
2021/12/28 08:01:45;;;;;;;2.77;2.50;;;7.40;99.90;;;8.17;100.00;96195.63;5201836;28;20226;-65
2021/12/28 08:04:18;;;;;;;3.13;2.90;;;7.40;99.90;;;8.17;100.00;96186.28;5203554;28;20206;-66
2021/12/28 08:06:51;;;;;;;3.20;2.90;;;7.40;99.90;;;8.16;100.00;96189.66;5203877;28;20661;-64
2021/12/28 08:09:25;;;;;;;2.80;2.60;;;7.40;99.90;;;8.05;100.00;96194.31;5203324;28;20202;-64
2021/12/28 08:11:58;;;;;;;3.27;2.40;;;7.30;99.90;;;8.13;100.00;96195.50;5204889;28;20194;-65
2021/12/28 08:14:33;;;;;;;2.20;2.10;;;7.40;99.90;;;8.29;100.00;96201.16;5201461;28;20248;-63
2021/12/28 08:17:06;;;;;;;2.20;2.10;;;7.50;99.90;;;8.21;100.00;96198.34;5202406;28;20225;-65
2021/12/28 08:19:39;;;;;;;2.73;2.53;;;7.40;99.90;;;8.26;100.00;96201.06;5201519;28;20209;-65
2021/12/28 08:22:12;;;;;;;2.43;2.20;;;7.50;99.90;;;8.35;100.00;96191.22;5205553;28;20227;-65
2021/12/28 08:24:45;;;;;;;2.23;2.10;;;7.50;99.90;;;8.40;100.00;96194.84;5204434;28;20198;-65
2021/12/28 08:27:18;;;;;;;2.43;2.23;;;7.50;99.90;;;8.44;100.00;96191.63;5206661;28;20228;-65
2021/12/28 08:29:53;;;;;;;2.00;1.90;;;7.60;99.90;;;8.47;100.00;96191.75;5205083;28;20206;-65
2021/12/28 08:32:26;;;;;;;2.00;1.90;;;7.60;99.90;;;8.47;100.00;96196.84;5203887;28;20197;-65
2021/12/28 08:34:59;;;;;;;2.93;2.10;;;7.60;99.90;;;8.32;100.00;96206.38;5203094;28;20603;-65
2021/12/28 08:37:33;;;;;;;2.57;2.03;;;7.60;99.90;;;8.52;100.00;96205.50;5201625;28;20320;-65
2021/12/28 08:40:08;;;;;;;2.10;2.00;;;7.70;99.90;;;8.61;100.00;96206.66;5200328;28;20204;-65
2021/12/28 08:42:41;;;;;;;2.13;2.03;;;7.70;99.90;;;8.58;100.00;96199.75;5203351;28;20197;-65
2021/12/28 08:45:16;;;;;;;1.80;1.70;;;7.70;99.90;;;8.67;100.00;96199.22;5200624;28;20449;-65
2021/12/28 08:47:50;;;;;;;1.67;1.57;;;7.80;99.90;;;8.61;100.00;96197.31;5199883;28;20221;-65
2021/12/28 08:50:24;;;;;;;2.13;2.03;;;7.70;99.90;;;8.64;100.00;96211.84;5202144;28;20224;-65
2021/12/28 08:52:57;;;;;;;1.97;1.87;;;7.80;99.90;;;8.51;100.00;96208.84;5200935;28;20673;-65
2021/12/28 08:55:30;;;;;;;2.20;2.10;;;7.80;99.90;;;8.51;100.00;96203.75;5202695;28;20201;-65
2021/12/28 08:58:03;;;;;;;5.10;2.63;;;7.80;99.90;;;8.41;100.00;96211.84;5202119;28;20226;-66
2021/12/28 09:00:39;;;;;;;2.10;2.00;;;7.70;99.90;;;8.36;100.00;96213.34;5204323;28;20216;-64
2021/12/28 09:03:12;;;;;;;2.10;2.00;;;7.70;99.90;;;8.42;100.00;96213.59;5190470;22;20222;-64
2021/12/28 09:05:45;;;;;;;2.13;1.80;;;7.80;99.90;;;8.42;100.00;96213.59;5161066;28;20199;-64
2021/12/28 09:08:19;;;;;;;2.37;2.23;;;7.70;99.90;;;8.39;100.00;96213.50;5157030;28;20570;-64
2021/12/28 09:10:52;;;;;;;1.73;1.73;;;7.70;99.90;;;8.40;100.00;96212.66;5162935;28;20573;-64
2021/12/28 09:13:25;;;;;;;2.00;1.90;;;7.80;99.90;;;8.44;100.00;96209.44;5156099;28;20591;-65
2021/12/28 09:16:00;;;;;;;2.37;2.27;;;7.80;99.90;;;8.48;100.00;96224.03;5156345;28;20208;-65
2021/12/28 09:18:33;;;;;;;2.00;1.90;;;7.90;99.90;;;8.54;100.00;96226.78;5160305;28;20253;-66
2021/12/28 09:21:06;;;;;;;2.20;2.10;;;7.90;99.90;;;8.52;100.00;96219.91;5157424;28;20226;-65
2021/12/28 09:23:39;;;;;;;2.23;2.07;;;7.90;99.90;;;8.59;100.00;96226.97;5159868;28;20318;-65
2021/12/28 09:26:32;;;;;;;2.10;2.00;;;7.90;99.90;;;8.60;100.00;96217.66;5153558;28;20196;-66
2021/12/28 09:29:05;;;;;;;2.13;2.03;;;8.00;99.90;;;8.67;100.00;96225.59;5153683;28;20215;-66
2021/12/28 09:31:40;;;;;;;1.90;1.80;;;8.10;99.90;;;8.70;100.00;96227.38;5152925;28;20721;-65
2021/12/28 09:34:13;;;;;;;1.80;1.70;;;8.10;99.90;;;8.73;100.00;96225.81;5156515;28;20293;-65
2021/12/28 09:37:01;;;;;;;2.33;2.20;;;8.10;99.90;;;8.79;100.00;96228.59;5155140;28;20204;-65
2021/12/28 09:39:34;;;;;;;2.38;2.20;;;8.20;99.90;;;8.80;100.00;96242.19;5158317;28;20222;-67
2021/12/28 09:42:08;;;;;;;2.20;2.10;;;8.20;99.90;;;8.88;100.00;96240.81;5153855;28;20227;-66
2021/12/28 09:44:42;;;;;;;2.30;2.10;;;8.30;99.90;;;9.07;100.00;96236.38;5155828;28;20201;-66
2021/12/28 09:47:16;;;;;;;2.25;2.10;;;8.20;99.90;;;9.05;100.00;96238.03;5157556;28;20278;-65
2021/12/28 09:49:50;;;;;;;2.00;1.90;;;8.30;99.90;;;9.10;100.00;96231.38;5155723;28;20195;-66
2021/12/28 09:52:24;;;;;;;2.65;2.20;;;8.30;99.90;;;9.10;100.00;96239.03;5157966;28;20230;-65
2021/12/28 09:54:57;;;;;;;1.80;1.70;;;8.30;99.90;;;9.03;100.00;96240.50;5156226;28;20270;-66
2021/12/28 09:57:30;;;;;;;1.90;1.83;;;8.30;99.90;;;8.97;100.00;96241.13;5156847;28;20214;-66
2021/12/28 10:00:07;;;;;;;1.75;1.75;;;8.30;99.90;;;8.93;100.00;96239.31;5159822;28;20200;-65
2021/12/28 10:02:43;;;;;;;1.85;1.75;;;8.30;99.90;;;8.97;100.00;96236.03;5155428;28;20226;-66
2021/12/28 10:05:20;;;;;;;2.17;1.88;;;8.30;99.90;;;8.95;100.00;96226.59;5156989;28;20231;-66
2021/12/28 10:07:57;;;;;;;2.00;1.90;;;8.40;99.90;;;9.13;100.00;96232.38;5156459;28;20203;-66
2021/12/28 10:10:34;;;;;;;2.20;2.10;;;8.40;99.90;;;9.10;100.00;96227.19;5159406;28;20199;-66
2021/12/28 10:13:10;;;;;;;2.70;2.60;;;8.40;99.90;;;9.11;100.00;96225.50;5154742;28;20214;-66
2021/12/28 10:15:44;;;;;;;2.33;2.22;;;8.40;99.90;;;9.13;100.00;96228.94;5159332;28;20221;-66
2021/12/28 10:18:20;;;;;;;2.10;2.00;;;8.40;99.90;;;9.15;100.00;96229.88;5155648;28;20206;-66
2021/12/28 10:20:56;;;;;;;2.28;2.05;;;8.40;99.90;;;9.17;100.00;96229.13;5154009;28;20214;-64
2021/12/28 10:23:34;;;;;;;2.38;2.28;;;8.50;99.90;;;9.14;100.00;96226.47;5154121;28;20232;-63
2021/12/28 10:26:10;;;;;;;2.22;2.13;;;8.50;99.90;;;9.22;100.00;96224.19;5157784;28;20660;-64
2021/12/28 10:28:43;;;;;;;2.15;2.05;;;8.50;99.90;;;9.24;100.00;96225.09;5156228;28;20225;-64
2021/12/28 10:31:21;;;;;;;3.13;2.33;;;8.50;99.90;;;9.20;100.00;96226.69;5154857;28;20207;-64
2021/12/28 10:33:57;;;;;;;2.42;2.33;;;8.50;99.90;;;9.26;100.00;96213.28;5154710;28;20250;-66
2021/12/28 10:36:34;;;;;;;2.22;2.13;;;8.50;99.90;;;9.30;100.00;96209.16;5157435;28;20249;-66
2021/12/28 10:39:08;;;;;;;2.35;2.25;;;8.60;99.90;;;9.41;100.00;96213.84;5153610;28;20199;-66
2021/12/28 10:41:43;;;;;;;2.15;2.00;;;8.60;99.90;;;9.43;100.00;96227.50;5155773;28;20608;-65
2021/12/28 10:44:17;;;;;;;2.58;2.38;;;8.70;99.90;;;9.47;100.00;96218.25;5157964;28;20562;-65
2021/12/28 10:46:50;;;;;;;2.33;2.22;;;8.60;99.90;;;9.42;100.00;96224.91;5156945;28;20205;-65
2021/12/28 10:49:39;;;;;;;3.10;2.90;;;8.70;99.90;;;9.55;100.00;96231.28;5155329;28;20211;-66
2021/12/28 10:52:24;;;;;;;3.38;2.70;;;8.70;99.90;;;9.58;100.00;96221.19;5153401;28;20246;-66
2021/12/28 10:55:21;;;;;;;2.50;2.30;;;8.80;99.90;;;9.63;100.00;96225.63;5154324;28;20690;-66